Time;durP1;ratioP1;P1;durP2;ratioP2;P2;SDS_P1;SDS_P2;PMS_P1;PMS_P2;Temp;Humidity;BMP_temperature;BMP_pressure;BME280_temperature;BME280_humidity;BME280_pressure;Samples;Min_cycle;Max_cycle;Signal;HPM_P1;HPM_P2
2022/06/02 00:02:07;;;;;;;;;;;16.20;91.70;;;;;;5082767;28;19975;-79
2022/06/02 00:04:36;;;;;;;;;;;16.20;91.70;;;;;;5081102;28;20401;-79
2022/06/02 00:07:07;;;;;;;;;;;16.20;91.70;;;;;;5085459;28;19931;-79
2022/06/02 00:09:40;;;;;;;;;;;16.10;91.70;;;;;;5067083;28;19931;-79
2022/06/02 00:12:09;;;;;;;;;;;16.10;91.70;;;;;;5066093;28;19967;-79
2022/06/02 00:14:41;;;;;;;;;;;16.10;91.70;;;;;;5079555;28;19931;-79
2022/06/02 00:17:13;;;;;;;;;;;16.00;91.70;;;;;;5084173;28;20350;-79
2022/06/02 00:19:54;;;;;;;;;;;16.10;91.70;;;;;;5085693;28;19932;-79
2022/06/02 00:22:24;;;;;;;;;;;16.00;91.70;;;;;;5083490;28;19972;-79
2022/06/02 00:24:54;;;;;;;;;;;16.00;91.70;;;;;;5086664;28;19928;-79
2022/06/02 00:27:26;;;;;;;;;;;16.00;91.70;;;;;;5086408;28;20188;-79
2022/06/02 00:30:00;;;;;;;;;;;16.00;91.70;;;;;;5084430;28;19929;-79
2022/06/02 00:32:33;;;;;;;;;;;15.90;91.60;;;;;;5083245;28;20406;-79
2022/06/02 00:35:07;;;;;;;;;;;15.90;91.60;;;;;;5068678;28;19978;-79
2022/06/02 00:37:41;;;;;;;;;;;15.90;91.60;;;;;;5079313;28;19935;-79
2022/06/02 00:40:09;;;;;;;;;;;15.80;91.60;;;;;;5066891;28;19924;-79
2022/06/02 00:42:39;;;;;;;;;;;15.80;91.50;;;;;;5084427;28;19934;-79
2022/06/02 00:45:07;;;;;;;;;;;15.80;91.50;;;;;;5063960;28;19935;-79
2022/06/02 00:47:43;;;;;;;;;;;15.80;91.50;;;;;;5081149;28;19932;-79
2022/06/02 00:50:14;;;;;;;;;;;15.80;91.50;;;;;;5066949;28;20441;-79
2022/06/02 00:52:48;;;;;;;;;;;15.80;91.50;;;;;;5085955;28;20433;-79
2022/06/02 00:58:20;;;;;;;;;;;15.70;91.50;;;;;;5083769;28;19987;-79
2022/06/02 01:00:51;;;;;;;;;;;15.70;91.50;;;;;;5088853;28;19975;-79
2022/06/02 01:03:22;;;;;;;;;;;15.70;91.50;;;;;;5080937;28;19954;-79
2022/06/02 01:06:03;;;;;;;;;;;15.60;91.40;;;;;;5057134;28;20575;-79
2022/06/02 01:08:47;;;;;;;;;;;15.60;91.40;;;;;;5072226;28;20015;-79
2022/06/02 01:11:21;;;;;;;;;;;15.60;91.40;;;;;;5080095;28;19924;-79
2022/06/02 01:14:00;;;;;;;;;;;15.60;91.40;;;;;;5081841;28;19966;-79
2022/06/02 01:16:33;;;;;;;;;;;15.60;91.40;;;;;;5073998;28;20369;-79
2022/06/02 01:19:15;;;;;;;;;;;15.50;91.40;;;;;;5078985;28;19934;-79
2022/06/02 01:21:51;;;;;;;;;;;15.50;91.40;;;;;;5061944;28;19928;-79
2022/06/02 01:24:39;;;;;;;;;;;15.40;91.30;;;;;;5075985;28;19977;-79
2022/06/02 01:27:21;;;;;;;;;;;15.40;91.30;;;;;;5031759;28;19951;-79
2022/06/02 01:29:59;;;;;;;;;;;15.40;91.30;;;;;;5048181;28;20346;-79
2022/06/02 01:32:33;;;;;;;;;;;15.40;91.30;;;;;;5080605;28;19924;-79
2022/06/02 01:35:06;;;;;;;;;;;15.40;91.30;;;;;;5071198;28;19978;-79
2022/06/02 01:37:35;;;;;;;;;;;15.40;91.30;;;;;;5081612;28;20241;-79
2022/06/02 01:40:06;;;;;;;;;;;15.30;91.20;;;;;;5083376;28;19977;-79
2022/06/02 01:42:41;;;;;;;;;;;15.30;91.20;;;;;;5052309;28;19932;-79
2022/06/02 01:45:12;;;;;;;;;;;15.30;91.20;;;;;;5074654;28;20423;-79
2022/06/02 01:47:42;;;;;;;;;;;15.20;91.20;;;;;;5061686;28;19924;-79
2022/06/02 01:50:21;;;;;;;;;;;15.30;91.20;;;;;;5082150;28;19928;-79
2022/06/02 01:52:55;;;;;;;;;;;15.30;91.20;;;;;;5074239;28;20360;-79
2022/06/02 01:55:34;;;;;;;;;;;15.20;91.20;;;;;;5076807;22;19928;-75
2022/06/02 01:58:07;;;;;;;;;;;15.20;91.20;;;;;;5077422;28;20406;-76
2022/06/02 02:00:35;;;;;;;;;;;15.20;91.20;;;;;;5056170;28;19932;-75
2022/06/02 02:03:11;;;;;;;;;;;15.20;91.20;;;;;;5058542;28;19924;-75
2022/06/02 02:05:43;;;;;;;;;;;15.10;91.20;;;;;;5066305;28;20393;-74
2022/06/02 02:08:29;;;;;;;;;;;15.10;91.20;;;;;;5062463;28;20313;-75
2022/06/02 02:11:07;;;;;;;;;;;15.10;91.20;;;;;;5076674;28;19930;-75
2022/06/02 02:13:37;;;;;;;;;;;15.10;91.20;;;;;;5075508;28;19924;-75
2022/06/02 02:16:14;;;;;;;;;;;15.00;91.10;;;;;;5075201;28;19925;-75
2022/06/02 02:18:48;;;;;;;;;;;15.00;91.10;;;;;;5055255;28;19928;-75
2022/06/02 02:21:19;;;;;;;;;;;15.00;91.20;;;;;;5052834;28;19939;-75
2022/06/02 02:23:53;;;;;;;;;;;15.00;91.10;;;;;;5076154;28;20069;-74
2022/06/02 02:26:24;;;;;;;;;;;15.00;91.10;;;;;;5075259;28;19927;-75
2022/06/02 02:28:53;;;;;;;;;;;15.00;91.10;;;;;;5071473;28;20369;-75
2022/06/02 02:31:36;;;;;;;;;;;14.90;91.00;;;;;;5076556;28;19948;-75
2022/06/02 02:34:12;;;;;;;;;;;14.90;91.00;;;;;;5080078;28;19932;-75
2022/06/02 02:36:44;;;;;;;;;;;14.90;91.00;;;;;;5073057;28;19959;-75
2022/06/02 02:39:22;;;;;;;;;;;14.90;91.00;;;;;;5071743;28;19997;-75
2022/06/02 02:41:52;;;;;;;;;;;14.90;91.00;;;;;;5075786;28;19978;-75
2022/06/02 02:44:24;;;;;;;;;;;14.80;90.90;;;;;;5082231;28;19925;-75
2022/06/02 02:46:54;;;;;;;;;;;14.80;91.00;;;;;;5088362;28;20020;-75
2022/06/02 02:49:28;;;;;;;;;;;14.80;91.00;;;;;;5060812;28;20316;-75
2022/06/02 02:51:59;;;;;;;;;;;14.80;91.00;;;;;;5056422;28;22037;-75
2022/06/02 02:54:29;;;;;;;;;;;14.80;90.90;;;;;;5055497;28;20473;-76
2022/06/02 02:56:59;;;;;;;;;;;14.80;90.90;;;;;;5053951;28;19932;-75
2022/06/02 02:59:31;;;;;;;;;;;14.70;90.90;;;;;;5076545;28;19960;-75
2022/06/02 03:02:14;;;;;;;;;;;14.70;90.90;;;;;;5075488;28;19939;-75
2022/06/02 03:04:49;;;;;;;;;;;14.70;90.90;;;;;;5073661;28;19924;-75
2022/06/02 03:07:17;;;;;;;;;;;14.70;90.90;;;;;;5073863;28;19924;-75
2022/06/02 03:09:48;;;;;;;;;;;14.70;91.00;;;;;;5070441;28;19963;-75
2022/06/02 03:12:19;;;;;;;;;;;14.70;91.00;;;;;;5075368;28;20547;-75
2022/06/02 03:14:56;;;;;;;;;;;14.60;90.90;;;;;;5069304;28;19924;-75
2022/06/02 03:17:26;;;;;;;;;;;14.60;90.90;;;;;;5069972;28;19943;-76
2022/06/02 03:19:58;;;;;;;;;;;14.60;90.90;;;;;;5078328;28;20405;-76
2022/06/02 03:22:43;;;;;;;;;;;14.60;90.90;;;;;;5075587;28;20017;-76
2022/06/02 03:25:12;;;;;;;;;;;14.60;90.90;;;;;;5078730;28;19925;-76
2022/06/02 03:27:44;;;;;;;;;;;14.60;90.90;;;;;;5064990;28;19924;-75
2022/06/02 03:30:18;;;;;;;;;;;14.50;90.90;;;;;;5079556;28;19932;-75
2022/06/02 03:32:52;;;;;;;;;;;14.50;90.90;;;;;;5071815;28;19924;-76
2022/06/02 03:35:25;;;;;;;;;;;14.50;90.90;;;;;;5067635;28;20007;-77
2022/06/02 03:37:59;;;;;;;;;;;14.50;90.90;;;;;;5069634;28;20015;-75
2022/06/02 03:40:31;;;;;;;;;;;14.50;90.90;;;;;;5078610;28;19925;-75
2022/06/02 03:43:04;;;;;;;;;;;14.50;90.90;;;;;;5067249;28;19951;-79
2022/06/02 03:45:38;;;;;;;;;;;14.50;90.90;;;;;;5077283;28;19931;-75
2022/06/02 03:48:21;;;;;;;;;;;14.40;90.90;;;;;;5077139;28;19928;-76
2022/06/02 03:51:05;;;;;;;;;;;14.40;90.90;;;;;;5053268;28;19951;-74
2022/06/02 03:53:38;;;;;;;;;;;14.40;90.80;;;;;;5077644;28;19942;-75
2022/06/02 03:56:10;;;;;;;;;;;14.40;90.80;;;;;;5061177;28;19931;-74
2022/06/02 03:58:44;;;;;;;;;;;14.40;90.90;;;;;;5051125;28;19928;-76
2022/06/02 04:01:13;;;;;;;;;;;14.40;90.80;;;;;;5068171;28;20605;-75
2022/06/02 04:03:47;;;;;;;;;;;14.30;90.80;;;;;;5079504;28;19924;-75
2022/06/02 04:06:21;;;;;;;;;;;14.30;90.80;;;;;;5079525;28;20003;-75
2022/06/02 04:09:02;;;;;;;;;;;14.30;90.80;;;;;;5079279;28;19928;-75
2022/06/02 04:14:35;;;;;;;;;;;14.30;90.80;;;;;;5075582;28;19977;-75
2022/06/02 04:17:07;;;;;;;;;;;14.30;90.80;;;;;;5056203;28;19928;-74
2022/06/02 04:22:44;;;;;;;;;;;14.20;90.80;;;;;;5055836;28;19967;-75
2022/06/02 04:25:19;;;;;;;;;;;14.20;90.80;;;;;;5078376;28;19928;-75
2022/06/02 04:27:49;;;;;;;;;;;14.20;90.80;;;;;;5072641;28;19950;-75
2022/06/02 04:30:21;;;;;;;;;;;14.20;90.80;;;;;;5079705;28;20447;-75
2022/06/02 04:32:52;;;;;;;;;;;14.20;90.90;;;;;;5077213;28;21256;-74
2022/06/02 04:35:24;;;;;;;;;;;14.20;90.80;;;;;;5057834;28;19925;-75
2022/06/02 04:37:56;;;;;;;;;;;14.20;90.90;;;;;;5075990;28;20412;-76
2022/06/02 04:40:29;;;;;;;;;;;14.20;90.90;;;;;;5076046;28;20445;-76
2022/06/02 04:42:59;;;;;;;;;;;14.10;90.80;;;;;;5074113;28;19938;-78
2022/06/02 04:45:31;;;;;;;;;;;14.10;90.80;;;;;;5084453;28;19939;-75
2022/06/02 04:48:03;;;;;;;;;;;14.10;90.80;;;;;;5079116;28;20041;-76
2022/06/02 04:50:34;;;;;;;;;;;14.10;90.80;;;;;;5084324;28;19989;-74
2022/06/02 04:53:09;;;;;;;;;;;14.10;90.80;;;;;;5061912;28;19969;-76
2022/06/02 04:55:42;;;;;;;;;;;14.10;90.90;;;;;;5064560;28;19924;-76
2022/06/02 04:58:13;;;;;;;;;;;14.10;90.90;;;;;;5078459;28;19936;-75
2022/06/02 05:00:45;;;;;;;;;;;14.10;90.90;;;;;;5080473;28;19924;-76
2022/06/02 05:03:16;;;;;;;;;;;14.10;91.00;;;;;;5081972;28;19925;-75
2022/06/02 05:05:46;;;;;;;;;;;14.00;91.00;;;;;;5076861;28;20019;-76
2022/06/02 05:08:24;;;;;;;;;;;14.00;91.00;;;;;;5059960;28;19924;-76
2022/06/02 05:10:54;;;;;;;;;;;14.00;91.00;;;;;;5077917;28;20026;-75
2022/06/02 05:13:27;;;;;;;;;;;14.00;91.00;;;;;;5056062;28;19975;-75
2022/06/02 05:16:06;;;;;;;;;;;14.00;91.00;;;;;;5079595;28;19977;-75
2022/06/02 05:18:42;;;;;;;;;;;14.00;91.10;;;;;;5077381;28;19932;-77
2022/06/02 05:21:24;;;;;;;;;;;14.00;91.10;;;;;;5079206;28;20022;-76
2022/06/02 05:24:12;;;;;;;;;;;14.00;91.10;;;;;;5078959;28;19928;-75
2022/06/02 05:27:01;;;;;;;;;;;13.90;91.10;;;;;;5061318;28;19924;-75
2022/06/02 05:29:47;;;;;;;;;;;13.90;91.10;;;;;;5083582;28;19931;-75
2022/06/02 05:32:26;;;;;;;;;;;13.90;91.30;;;;;;5066521;28;20015;-75
2022/06/02 05:35:04;;;;;;;;;;;13.90;90.90;;;;;;5077958;28;19924;-75
2022/06/02 05:37:46;;;;;;;;;;;13.90;90.70;;;;;;5065717;28;19924;-75
2022/06/02 05:40:20;;;;;;;;;;;13.80;91.10;;;;;;5079981;28;19928;-76
2022/06/02 05:42:51;;;;;;;;;;;13.70;91.30;;;;;;5074356;28;20012;-75
2022/06/02 05:45:24;;;;;;;;;;;13.70;91.40;;;;;;5078709;28;20313;-75
2022/06/02 05:48:01;;;;;;;;;;;13.70;91.50;;;;;;5078042;28;19928;-75
2022/06/02 05:50:33;;;;;;;;;;;13.70;91.50;;;;;;5081823;28;19924;-75
2022/06/02 05:53:03;;;;;;;;;;;13.80;91.50;;;;;;5078246;28;19931;-76
2022/06/02 05:55:42;;;;;;;;;;;13.80;91.50;;;;;;5083159;28;19928;-77
2022/06/02 05:58:31;;;;;;;;;;;13.80;91.50;;;;;;5083424;28;19931;-77
2022/06/02 06:01:05;;;;;;;;;;;13.80;91.60;;;;;;5061116;28;19924;-76
2022/06/02 06:03:50;;;;;;;;;;;13.90;91.60;;;;;;5088708;28;19935;-77
2022/06/02 06:06:22;;;;;;;;;;;13.90;91.60;;;;;;5080846;28;19932;-77
2022/06/02 06:08:53;;;;;;;;;;;13.90;91.60;;;;;;5078718;28;19932;-77
2022/06/02 06:11:29;;;;;;;;;;;14.00;91.60;;;;;;5079179;28;19932;-77
2022/06/02 06:14:11;;;;;;;;;;;14.00;91.60;;;;;;5084783;28;19931;-77
2022/06/02 06:16:40;;;;;;;;;;;14.00;91.60;;;;;;5079941;28;19924;-77
2022/06/02 06:19:16;;;;;;;;;;;14.10;91.60;;;;;;5076892;28;19932;-77
2022/06/02 06:21:50;;;;;;;;;;;14.10;91.60;;;;;;5057687;28;19928;-77
2022/06/02 06:24:43;;;;;;;;;;;14.10;91.50;;;;;;5072758;28;19977;-77
2022/06/02 06:27:14;;;;;;;;;;;14.10;91.60;;;;;;5073630;28;19947;-77
2022/06/02 06:30:02;;;;;;;;;;;14.10;91.80;;;;;;5078593;28;19947;-77
2022/06/02 06:32:33;;;;;;;;;;;14.20;91.50;;;;;;5058841;28;19931;-78
2022/06/02 06:35:07;;;;;;;;;;;14.20;91.50;;;;;;5083567;28;19924;-77
2022/06/02 06:37:45;;;;;;;;;;;14.20;91.50;;;;;;5076523;28;19932;-76
2022/06/02 06:40:18;;;;;;;;;;;14.20;91.50;;;;;;5078898;28;19928;-77
2022/06/02 06:42:53;;;;;;;;;;;14.20;91.50;;;;;;5056557;28;19986;-76
2022/06/02 06:45:22;;;;;;;;;;;14.20;91.60;;;;;;5177257;22;20080;-79
2022/06/02 06:50:19;;;;;;;;;;;14.30;91.60;;;;;;5075959;28;19928;-76
2022/06/02 06:53:01;;;;;;;;;;;14.30;91.60;;;;;;5077505;28;19964;-77
2022/06/02 06:55:46;;;;;;;;;;;14.40;91.60;;;;;;5058318;28;19936;-77
2022/06/02 06:58:20;;;;;;;;;;;14.40;91.60;;;;;;5059554;28;20015;-77
2022/06/02 07:00:51;;;;;;;;;;;14.40;91.60;;;;;;5055899;28;19940;-79
2022/06/02 07:03:21;;;;;;;;;;;14.40;91.70;;;;;;5037489;28;19928;-76
2022/06/02 07:05:48;;;;;;;;;;;14.50;91.80;;;;;;5056994;28;19925;-76
2022/06/02 07:08:18;;;;;;;;;;;14.50;91.80;;;;;;5058873;28;19998;-77
2022/06/02 07:10:48;;;;;;;;;;;14.60;91.70;;;;;;5035166;28;19925;-76
2022/06/02 07:13:19;;;;;;;;;;;14.60;91.70;;;;;;5054963;28;19925;-77
2022/06/02 07:15:49;;;;;;;;;;;14.60;91.70;;;;;;5059649;28;19971;-76
2022/06/02 07:18:22;;;;;;;;;;;14.60;91.70;;;;;;5042051;28;20290;-77
2022/06/02 07:20:51;;;;;;;;;;;14.70;91.70;;;;;;5058591;28;20430;-76
2022/06/02 07:23:21;;;;;;;;;;;14.70;91.70;;;;;;5056687;28;20353;-76
2022/06/02 07:25:54;;;;;;;;;;;14.70;91.60;;;;;;5055228;28;20279;-76
2022/06/02 07:28:30;;;;;;;;;;;14.80;91.60;;;;;;5057278;28;19972;-76
2022/06/02 07:31:04;;;;;;;;;;;14.80;91.60;;;;;;5041799;28;20352;-76
2022/06/02 07:33:39;;;;;;;;;;;14.80;91.60;;;;;;5055985;28;19931;-76
2022/06/02 07:36:17;;;;;;;;;;;14.80;91.60;;;;;;5057943;28;19932;-77
2022/06/02 07:38:58;;;;;;;;;;;14.90;91.50;;;;;;5057879;28;19924;-76
2022/06/02 07:41:34;;;;;;;;;;;14.90;91.50;;;;;;5061006;28;19928;-77
2022/06/02 07:44:19;;;;;;;;;;;14.90;91.40;;;;;;5055015;28;19982;-76
2022/06/02 07:46:57;;;;;;;;;;;14.90;91.40;;;;;;5013624;28;19924;-77
2022/06/02 07:49:29;;;;;;;;;;;15.00;91.40;;;;;;5053066;28;19925;-77
2022/06/02 07:51:58;;;;;;;;;;;15.00;91.40;;;;;;5055556;28;20322;-77
2022/06/02 07:54:31;;;;;;;;;;;15.00;91.30;;;;;;5053577;28;20352;-77
2022/06/02 07:57:04;;;;;;;;;;;15.00;91.20;;;;;;5084605;22;19931;-78
2022/06/02 07:59:37;;;;;;;;;;;15.00;91.20;;;;;;5084566;28;19982;-78
2022/06/02 08:02:20;;;;;;;;;;;15.00;91.20;;;;;;5081723;28;20240;-78
2022/06/02 08:04:51;;;;;;;;;;;15.10;91.30;;;;;;5078466;28;19971;-78
2022/06/02 08:07:22;;;;;;;;;;;15.10;91.40;;;;;;5076188;28;19950;-78
2022/06/02 08:09:55;;;;;;;;;;;15.10;91.40;;;;;;5076834;28;19924;-77
2022/06/02 08:12:25;;;;;;;;;;;15.10;91.50;;;;;;5061404;28;20343;-77
2022/06/02 08:14:58;;;;;;;;;;;15.10;91.50;;;;;;5052083;28;19954;-77
2022/06/02 08:17:30;;;;;;;;;;;15.10;91.60;;;;;;5079256;28;19931;-77
2022/06/02 08:20:05;;;;;;;;;;;15.20;91.60;;;;;;5081799;28;19985;-77
2022/06/02 08:22:36;;;;;;;;;;;15.20;91.60;;;;;;5078600;28;19924;-77
2022/06/02 08:25:08;;;;;;;;;;;15.20;91.60;;;;;;5071736;28;19932;-77
2022/06/02 08:27:48;;;;;;;;;;;15.20;91.60;;;;;;5077835;28;19959;-77
2022/06/02 08:30:16;;;;;;;;;;;15.20;92.00;;;;;;5076062;28;19924;-77
2022/06/02 08:32:53;;;;;;;;;;;15.30;91.70;;;;;;5073092;28;19935;-77
2022/06/02 08:35:22;;;;;;;;;;;15.20;91.80;;;;;;5077097;28;20037;-77
2022/06/02 08:37:56;;;;;;;;;;;15.30;91.80;;;;;;5057484;28;20376;-78
2022/06/02 08:40:33;;;;;;;;;;;15.30;91.80;;;;;;5061913;28;19946;-77
2022/06/02 08:43:22;;;;;;;;;;;15.30;91.90;;;;;;5079902;28;20384;-77
2022/06/02 08:46:07;;;;;;;;;;;15.30;91.80;;;;;;5076494;28;20019;-77
2022/06/02 08:48:53;;;;;;;;;;;15.40;91.90;;;;;;5075091;28;19997;-77
2022/06/02 08:51:38;;;;;;;;;;;15.40;91.90;;;;;;5072216;28;19925;-77
2022/06/02 08:54:31;;;;;;;;;;;15.40;92.00;;;;;;5073899;28;19936;-77
2022/06/02 08:57:25;;;;;;;;;;;15.40;92.00;;;;;;5074095;28;19931;-77
2022/06/02 09:00:19;;;;;;;;;;;15.40;92.00;;;;;;5056613;28;19978;-77
2022/06/02 09:03:05;;;;;;;;;;;15.50;92.00;;;;;;5056373;28;19928;-77
2022/06/02 09:05:47;;;;;;;;;;;15.50;92.00;;;;;;5075117;28;20251;-77
2022/06/02 09:11:13;;;;;;;;;;;15.50;92.00;;;;;;5099169;27;19928;-78
2022/06/02 09:13:59;;;;;;;;;;;15.50;92.10;;;;;;5096202;28;19931;-78
2022/06/02 09:16:29;;;;;;;;;;;15.60;92.20;;;;;;5072280;28;20047;-78
2022/06/02 09:19:03;;;;;;;;;;;15.50;92.20;;;;;;5075213;28;19929;-78
2022/06/02 09:21:34;;;;;;;;;;;15.60;92.20;;;;;;5072398;28;19970;-77
2022/06/02 09:24:12;;;;;;;;;;;15.60;92.20;;;;;;5072885;28;20402;-78
2022/06/02 09:26:57;;;;;;;;;;;15.60;92.20;;;;;;5091996;28;19939;-79
2022/06/02 09:29:25;;;;;;;;;;;15.70;92.20;;;;;;5068883;28;20329;-78
2022/06/02 09:31:58;;;;;;;;;;;15.70;92.10;;;;;;5099767;27;19970;-78
2022/06/02 09:34:38;;;;;;;;;;;15.70;92.20;;;;;;5076520;28;19925;-78
2022/06/02 09:37:23;;;;;;;;;;;15.70;92.20;;;;;;5076390;28;20092;-79
2022/06/02 09:40:00;;;;;;;;;;;15.70;92.20;;;;;;5073923;28;19924;-78
2022/06/02 09:42:44;;;;;;;;;;;15.70;92.30;;;;;;5072110;28;20294;-78
2022/06/02 09:45:21;;;;;;;;;;;15.70;92.30;;;;;;5073331;28;19932;-78
2022/06/02 09:48:12;;;;;;;;;;;15.70;92.30;;;;;;5070981;28;20028;-78
2022/06/02 09:50:50;;;;;;;;;;;15.80;92.30;;;;;;5048419;28;20023;-78
2022/06/02 09:53:36;;;;;;;;;;;15.80;92.30;;;;;;5074149;28;19947;-79
2022/06/02 09:56:08;;;;;;;;;;;15.80;92.60;;;;;;5078150;28;19942;-78
2022/06/02 09:58:54;;;;;;;;;;;15.80;92.20;;;;;;5069370;28;20291;-79
2022/06/02 10:01:30;;;;;;;;;;;15.80;92.10;;;;;;5074774;28;19939;-78
2022/06/02 10:04:30;;;;;;;;;;;15.80;92.00;;;;;;5071096;28;20024;-78
2022/06/02 10:07:07;;;;;;;;;;;15.90;92.10;;;;;;5049851;28;19928;-78
2022/06/02 10:09:40;;;;;;;;;;;15.90;92.00;;;;;;5049766;28;19925;-78
2022/06/02 10:15:09;;;;;;;;;;;15.90;91.90;;;;;;5071580;28;20073;-78
2022/06/02 10:17:46;;;;;;;;;;;15.90;91.60;;;;;;5076972;28;20025;-78
2022/06/02 10:20:37;;;;;;;;;;;16.00;91.50;;;;;;5071312;28;19924;-78
2022/06/02 10:23:12;;;;;;;;;;;16.00;91.20;;;;;;5054742;28;20458;-78
2022/06/02 10:25:52;;;;;;;;;;;16.00;90.90;;;;;;5063227;28;19932;-77
2022/06/02 10:28:43;;;;;;;;;;;16.00;90.80;;;;;;5055790;28;19928;-78
2022/06/02 10:31:32;;;;;;;;;;;16.00;90.90;;;;;;5007074;28;20007;-77
2022/06/02 10:34:14;;;;;;;;;;;16.00;90.90;;;;;;5048063;28;20607;-78
2022/06/02 10:37:02;;;;;;;;;;;16.00;91.00;;;;;;5034522;28;19924;-78
2022/06/02 10:39:41;;;;;;;;;;;16.10;91.10;;;;;;5053726;28;20540;-77
2022/06/02 10:42:16;;;;;;;;;;;16.10;91.10;;;;;;5059564;28;19924;-78
2022/06/02 10:44:58;;;;;;;;;;;16.10;91.20;;;;;;5056289;28;20446;-77
2022/06/02 10:47:52;;;;;;;;;;;16.10;91.20;;;;;;5056544;28;19928;-77
2022/06/02 10:50:25;;;;;;;;;;;16.10;91.40;;;;;;5052005;28;20249;-78
2022/06/02 10:53:19;;;;;;;;;;;16.20;91.40;;;;;;5050297;28;19932;-78
2022/06/02 10:56:18;;;;;;;;;;;16.20;91.40;;;;;;5030213;28;19936;-77
2022/06/02 10:59:00;;;;;;;;;;;16.20;91.50;;;;;;5066219;28;19978;-78
2022/06/02 11:01:42;;;;;;;;;;;16.20;91.50;;;;;;5051959;28;20252;-78
2022/06/02 11:04:26;;;;;;;;;;;16.30;91.50;;;;;;5052133;28;19986;-77
2022/06/02 11:07:14;;;;;;;;;;;16.30;91.50;;;;;;5051928;28;19928;-76
2022/06/02 11:09:59;;;;;;;;;;;16.30;91.50;;;;;;5056820;28;20357;-77
2022/06/02 11:12:38;;;;;;;;;;;16.30;91.50;;;;;;5056456;28;19939;-78
2022/06/02 11:15:32;;;;;;;;;;;16.40;91.70;;;;;;5055990;28;19929;-78
2022/06/02 11:18:14;;;;;;;;;;;16.40;91.70;;;;;;5035163;28;19931;-77
2022/06/02 11:20:48;;;;;;;;;;;16.40;91.70;;;;;;5055592;28;19928;-78
2022/06/02 11:23:25;;;;;;;;;;;16.40;91.80;;;;;;5058236;28;20016;-77
2022/06/02 11:26:02;;;;;;;;;;;16.50;91.80;;;;;;5061010;28;19936;-77
2022/06/02 11:28:43;;;;;;;;;;;16.50;91.80;;;;;;5061054;28;19940;-78
2022/06/02 11:31:28;;;;;;;;;;;16.50;91.80;;;;;;5057697;28;19937;-78
2022/06/02 11:34:08;;;;;;;;;;;16.50;91.90;;;;;;5055040;28;19933;-77
2022/06/02 11:37:08;;;;;;;;;;;16.60;92.00;;;;;;5058319;28;19928;-77
2022/06/02 11:39:58;;;;;;;;;;;16.60;92.00;;;;;;4995835;28;19925;-77
2022/06/02 11:42:43;;;;;;;;;;;16.60;91.90;;;;;;5048972;28;19929;-79
2022/06/02 11:45:20;;;;;;;;;;;16.70;92.00;;;;;;5059667;28;19924;-83
2022/06/02 11:48:01;;;;;;;;;;;16.70;92.00;;;;;;5058101;28;19924;-81
2022/06/02 11:50:38;;;;;;;;;;;16.70;92.00;;;;;;5059149;28;19974;-85
2022/06/02 11:53:19;;;;;;;;;;;16.80;92.10;;;;;;5079674;28;19933;-84
2022/06/02 11:55:51;;;;;;;;;;;16.80;92.10;;;;;;5063939;28;19950;-80
2022/06/02 11:58:34;;;;;;;;;;;16.80;92.10;;;;;;5066008;28;20537;-83
2022/06/02 12:01:27;;;;;;;;;;;16.90;92.20;;;;;;5058991;28;20192;-82
2022/06/02 12:04:12;;;;;;;;;;;16.90;92.20;;;;;;5059964;28;20283;-79
2022/06/02 12:07:05;;;;;;;;;;;16.90;92.40;;;;;;5063330;28;19932;-82
2022/06/02 12:09:39;;;;;;;;;;;17.00;92.40;;;;;;5058789;28;20416;-81
2022/06/02 12:12:22;;;;;;;;;;;17.10;92.50;;;;;;5096310;28;20302;-83
2022/06/02 12:15:02;;;;;;;;;;;17.10;92.50;;;;;;5064276;28;20358;-83
2022/06/02 12:17:40;;;;;;;;;;;17.10;92.60;;;;;;5061200;28;19925;-78
2022/06/02 12:20:16;;;;;;;;;;;17.10;92.60;;;;;;5055392;28;19956;-80
2022/06/02 12:22:56;;;;;;;;;;;17.20;92.60;;;;;;5059152;28;19932;-80
2022/06/02 12:25:41;;;;;;;;;;;17.20;92.60;;;;;;5057843;28;19939;-81
2022/06/02 12:28:24;;;;;;;;;;;17.30;92.80;;;;;;5065429;28;19933;-80
2022/06/02 12:31:17;;;;;;;;;;;17.40;93.00;;;;;;5063371;28;20345;-81
2022/06/02 12:33:56;;;;;;;;;;;17.40;93.10;;;;;;5098230;27;19954;-82
2022/06/02 12:36:35;;;;;;;;;;;17.50;93.00;;;;;;5056692;28;19932;-80
2022/06/02 12:39:19;;;;;;;;;;;17.50;93.10;;;;;;5058494;28;20354;-80
2022/06/02 12:41:53;;;;;;;;;;;17.60;93.20;;;;;;5059131;28;20284;-81
2022/06/02 12:44:50;;;;;;;;;;;17.60;93.20;;;;;;5050922;28;19932;-81
2022/06/02 12:47:32;;;;;;;;;;;17.70;93.40;;;;;;5053731;28;19964;-82
2022/06/02 12:50:12;;;;;;;;;;;17.70;93.40;;;;;;5059934;28;20401;-81
2022/06/02 12:52:47;;;;;;;;;;;17.80;93.40;;;;;;5058485;28;19936;-80
2022/06/02 12:55:34;;;;;;;;;;;17.80;93.40;;;;;;5056743;28;19947;-80
2022/06/02 12:58:21;;;;;;;;;;;17.90;93.50;;;;;;5059585;28;19969;-81
2022/06/02 13:00:56;;;;;;;;;;;18.00;93.40;;;;;;5052441;28;20414;-80
2022/06/02 13:03:38;;;;;;;;;;;18.00;93.40;;;;;;5058873;28;19974;-80
2022/06/02 13:06:15;;;;;;;;;;;18.10;93.60;;;;;;5055878;28;19931;-81
2022/06/02 13:09:02;;;;;;;;;;;18.10;93.60;;;;;;5058099;28;19928;-80
2022/06/02 13:11:39;;;;;;;;;;;18.20;93.60;;;;;;5058736;28;19936;-81
2022/06/02 13:14:24;;;;;;;;;;;18.30;93.60;;;;;;5092191;28;20362;-81
2022/06/02 13:17:17;;;;;;;;;;;18.30;93.60;;;;;;5046558;28;19930;-81
2022/06/02 13:20:02;;;;;;;;;;;18.40;93.70;;;;;;5057494;28;19932;-81
2022/06/02 13:22:54;;;;;;;;;;;18.40;93.70;;;;;;5057902;28;19925;-81
2022/06/02 13:25:44;;;;;;;;;;;18.50;93.70;;;;;;5059669;28;20426;-81
2022/06/02 13:28:27;;;;;;;;;;;18.50;93.50;;;;;;5061003;28;20707;-81
2022/06/02 13:31:13;;;;;;;;;;;18.60;93.50;;;;;;5060317;28;19950;-81
2022/06/02 13:33:52;;;;;;;;;;;18.70;93.60;;;;;;5060635;28;20601;-81
2022/06/02 13:36:32;;;;;;;;;;;18.70;93.60;;;;;;5052156;28;19931;-81
2022/06/02 13:39:26;;;;;;;;;;;18.80;93.60;;;;;;5056381;28;19943;-81
2022/06/02 13:42:10;;;;;;;;;;;18.80;93.60;;;;;;5057480;28;20314;-81
2022/06/02 13:44:51;;;;;;;;;;;18.90;93.70;;;;;;5056123;28;19975;-77
2022/06/02 13:47:37;;;;;;;;;;;19.00;93.70;;;;;;5047794;28;19929;-81
2022/06/02 13:50:04;;;;;;;;;;;;;;;;;;5069747;28;20386;-82
2022/06/02 13:52:49;;;;;;;;;;;19.10;93.50;;;;;;5056306;28;19932;-83
2022/06/02 13:58:52;;;;;;;;;;;19.20;93.70;;;;;;4993013;28;20390;-80
2022/06/02 14:01:27;;;;;;;;;;;19.30;93.70;;;;;;5002810;28;20382;-79
2022/06/02 14:04:09;;;;;;;;;;;19.30;93.60;;;;;;4986679;28;19926;-80
2022/06/02 14:06:41;;;;;;;;;;;19.30;93.50;;;;;;4975157;28;20434;-80
2022/06/02 14:09:23;;;;;;;;;;;19.40;93.50;;;;;;4984578;28;20312;-78
2022/06/02 14:11:52;;;;;;;;;;;19.40;92.50;;;;;;5003209;28;20446;-79
2022/06/02 14:14:42;;;;;;;;;;;19.50;92.60;;;;;;4990222;28;19929;-79
2022/06/02 14:17:14;;;;;;;;;;;19.50;92.90;;;;;;4980039;28;20020;-79
2022/06/02 14:19:49;;;;;;;;;;;19.50;92.90;;;;;;4986355;28;20013;-79
2022/06/02 14:22:21;;;;;;;;;;;19.60;92.90;;;;;;4981827;28;19967;-78
2022/06/02 14:24:51;;;;;;;;;;;19.60;92.90;;;;;;4983430;28;19933;-79
2022/06/02 14:27:22;;;;;;;;;;;19.60;92.90;;;;;;4982167;28;19926;-80
2022/06/02 14:29:58;;;;;;;;;;;19.70;92.90;;;;;;4983464;28;19936;-79
2022/06/02 14:32:29;;;;;;;;;;;19.70;92.90;;;;;;4984597;28;20304;-79
2022/06/02 14:35:21;;;;;;;;;;;19.70;92.80;;;;;;4982193;28;19982;-76
2022/06/02 14:37:54;;;;;;;;;;;19.70;92.80;;;;;;4985516;28;19926;-79
2022/06/02 14:40:24;;;;;;;;;;;19.80;92.80;;;;;;4987402;28;19926;-79
2022/06/02 14:43:06;;;;;;;;;;;19.80;92.30;;;;;;4982154;28;19934;-80
2022/06/02 14:45:46;;;;;;;;;;;19.80;92.40;;;;;;4987523;28;19926;-78
2022/06/02 14:48:19;;;;;;;;;;;19.90;92.10;;;;;;4993749;28;19953;-79
2022/06/02 14:50:54;;;;;;;;;;;19.90;92.30;;;;;;4984443;28;19926;-79
2022/06/02 14:53:40;;;;;;;;;;;19.90;92.40;;;;;;4975717;28;19933;-79
2022/06/02 14:56:14;;;;;;;;;;;20.00;92.50;;;;;;5001473;28;20320;-80
2022/06/02 14:58:49;;;;;;;;;;;20.00;92.50;;;;;;5004054;28;19960;-79
2022/06/02 15:01:26;;;;;;;;;;;20.00;92.40;;;;;;5000514;28;19929;-80
2022/06/02 15:04:15;;;;;;;;;;;20.10;92.50;;;;;;5001148;28;19926;-80
2022/06/02 15:07:03;;;;;;;;;;;20.10;92.40;;;;;;5002484;28;19937;-80
2022/06/02 15:09:46;;;;;;;;;;;20.10;92.50;;;;;;4995456;28;19929;-78
2022/06/02 15:12:20;;;;;;;;;;;20.10;92.50;;;;;;5001817;28;20359;-78
2022/06/02 15:14:53;;;;;;;;;;;20.10;92.50;;;;;;5003559;28;20307;-78
2022/06/02 15:17:38;;;;;;;;;;;20.20;92.50;;;;;;5008419;28;19932;-80
2022/06/02 15:20:24;;;;;;;;;;;20.20;92.50;;;;;;5002767;28;19929;-80
2022/06/02 15:25:28;;;;;;;;;;;20.20;92.40;;;;;;5078323;22;19924;-81
2022/06/02 15:28:06;;;;;;;;;;;20.20;92.30;;;;;;5044925;28;19933;-80
2022/06/02 15:30:40;;;;;;;;;;;20.20;92.30;;;;;;5048877;28;20395;-81
2022/06/02 15:33:25;;;;;;;;;;;20.20;92.30;;;;;;5042831;28;19932;-81
2022/06/02 15:36:01;;;;;;;;;;;20.20;92.30;;;;;;5021052;28;19936;-81
2022/06/02 15:38:55;;;;;;;;;;;20.20;92.20;;;;;;5047175;28;19939;-81
2022/06/02 15:41:42;;;;;;;;;;;20.20;92.20;;;;;;5060999;28;20402;-81